Time;durP1;ratioP1;P1;durP2;ratioP2;P2;SDS_P1;SDS_P2;PMS_P1;PMS_P2;Temp;Humidity;BMP_temperature;BMP_pressure;BME280_temperature;BME280_humidity;BME280_pressure;Samples;Min_cycle;Max_cycle;Signal;HPM_P1;HPM_P2
2023/09/17 00:00:09;;;;;;;5.97;4.35;;;23.00;99.90;;;;;;5076556;28;44774;-51
2023/09/17 00:02:36;;;;;;;6.15;4.28;;;23.00;99.90;;;;;;5079477;28;46639;-51
2023/09/17 00:05:03;;;;;;;6.78;4.20;;;23.00;99.90;;;;;;5074239;28;45309;-51
2023/09/17 00:07:30;;;;;;;6.45;4.60;;;23.00;99.90;;;;;;5075925;27;45221;-51
2023/09/17 00:09:57;;;;;;;6.05;4.60;;;23.00;99.90;;;;;;5078458;28;45392;-51
2023/09/17 00:12:25;;;;;;;5.45;3.85;;;23.00;99.90;;;;;;5076083;27;45171;-51
2023/09/17 00:14:52;;;;;;;8.02;4.45;;;23.00;99.90;;;;;;5077719;28;45137;-51
2023/09/17 00:17:19;;;;;;;5.95;4.47;;;23.00;99.90;;;;;;5075071;27;45053;-51
2023/09/17 00:19:46;;;;;;;6.32;4.57;;;23.00;99.90;;;;;;5076920;28;44879;-52
2023/09/17 00:22:14;;;;;;;6.80;4.85;;;23.00;99.90;;;;;;5077452;28;45342;-52
2023/09/17 00:24:41;;;;;;;7.28;4.72;;;23.00;99.90;;;;;;5077458;28;45287;-51
2023/09/17 00:27:08;;;;;;;7.55;4.85;;;23.00;99.90;;;;;;5080190;28;45163;-51
2023/09/17 00:29:36;;;;;;;7.65;4.70;;;23.00;99.90;;;;;;5082669;28;45134;-51
2023/09/17 00:32:03;;;;;;;6.30;5.10;;;23.00;99.90;;;;;;5083672;27;44958;-51
2023/09/17 00:34:30;;;;;;;6.03;4.65;;;23.00;99.90;;;;;;5073834;28;45271;-51
2023/09/17 00:37:00;;;;;;;7.95;5.25;;;23.00;99.90;;;;;;5081044;28;45174;-51
2023/09/17 00:39:27;;;;;;;8.40;5.18;;;23.00;99.90;;;;;;5079822;28;45196;-51
2023/09/17 00:41:54;;;;;;;7.93;5.00;;;23.00;99.90;;;;;;5077198;28;45147;-51
2023/09/17 00:44:21;;;;;;;7.47;5.63;;;23.00;99.90;;;;;;5079427;28;44615;-51
2023/09/17 00:46:51;;;;;;;8.27;5.80;;;23.00;99.90;;;;;;5073722;28;45162;-51
2023/09/17 00:49:18;;;;;;;6.80;5.30;;;23.00;99.90;;;;;;5075365;28;45226;-51
2023/09/17 00:51:45;;;;;;;7.93;5.50;;;23.00;99.90;;;;;;5083991;28;45194;-51
2023/09/17 00:54:14;;;;;;;6.82;4.90;;;23.00;99.90;;;;;;5077308;28;45583;-51
2023/09/17 00:56:41;;;;;;;7.55;5.05;;;23.00;99.90;;;;;;5076123;28;45232;-51
2023/09/17 00:59:08;;;;;;;11.82;6.32;;;23.00;99.90;;;;;;5076959;27;45222;-51
2023/09/17 01:01:36;;;;;;;6.72;5.10;;;23.00;99.90;;;;;;5077661;28;47005;-51
2023/09/17 01:04:04;;;;;;;7.47;5.30;;;23.00;99.90;;;;;;5078814;28;45132;-51
2023/09/17 01:06:31;;;;;;;6.72;5.00;;;23.00;99.90;;;;;;5077665;28;45537;-51
2023/09/17 01:08:59;;;;;;;7.25;4.95;;;23.00;99.90;;;;;;5077778;28;45257;-51
2023/09/17 01:11:26;;;;;;;7.30;4.93;;;23.00;99.90;;;;;;5079007;27;45256;-51
2023/09/17 01:14:08;;;;;;;6.97;5.20;;;23.00;99.90;;;;;;5077168;28;45132;-51
2023/09/17 01:16:35;;;;;;;8.50;5.47;;;23.00;99.90;;;;;;5073113;28;45284;-51
2023/09/17 01:19:04;;;;;;;8.38;4.82;;;23.00;99.90;;;;;;5076584;28;45218;-51
2023/09/17 01:21:37;;;;;;;6.13;4.50;;;23.00;99.90;;;;;;5077569;28;47772;-51
2023/09/17 01:24:21;;;;;;;7.32;4.80;;;23.00;99.90;;;;;;5078020;28;45102;-51
2023/09/17 01:26:59;;;;;;;7.22;5.10;;;23.00;99.90;;;;;;5078182;28;45348;-51
2023/09/17 01:29:26;;;;;;;5.82;4.65;;;23.00;99.90;;;;;;5077896;27;45543;-51
2023/09/17 01:31:55;;;;;;;5.25;4.30;;;23.00;99.90;;;;;;5070604;28;46639;-50
2023/09/17 01:34:22;;;;;;;6.65;4.47;;;23.00;99.90;;;;;;5078091;28;45158;-50
2023/09/17 01:36:50;;;;;;;7.53;4.75;;;23.00;99.90;;;;;;5079100;28;44665;-50
2023/09/17 01:39:22;;;;;;;6.53;4.65;;;23.00;99.90;;;;;;5081523;28;45583;-50
2023/09/17 01:41:49;;;;;;;6.60;4.53;;;23.00;99.90;;;;;;5079331;28;46033;-51
2023/09/17 01:44:18;;;;;;;6.93;5.00;;;23.00;99.90;;;;;;5074560;28;45147;-51
2023/09/17 01:46:46;;;;;;;6.05;4.50;;;23.00;99.90;;;;;;5080384;28;45260;-51
2023/09/17 01:49:14;;;;;;;7.35;4.72;;;23.00;99.90;;;;;;5078767;28;45292;-51
2023/09/17 01:51:43;;;;;;;7.68;4.72;;;23.00;99.90;;;;;;5079465;28;45223;-51
2023/09/17 01:54:10;;;;;;;7.65;5.07;;;23.00;99.90;;;;;;5078653;28;45275;-51
2023/09/17 01:56:38;;;;;;;7.78;5.32;;;23.00;99.90;;;;;;5078864;28;45150;-51
2023/09/17 01:59:06;;;;;;;7.07;4.80;;;23.00;99.90;;;;;;5076982;28;45074;-51
2023/09/17 02:01:35;;;;;;;6.47;4.82;;;23.00;99.90;;;;;;5079780;27;45437;-51
2023/09/17 02:04:02;;;;;;;7.47;5.20;;;23.00;99.90;;;;;;5073158;28;45359;-51
2023/09/17 02:06:29;;;;;;;8.05;5.05;;;23.00;99.90;;;;;;5080587;28;45230;-51
2023/09/17 02:08:56;;;;;;;6.95;4.70;;;23.00;99.90;;;;;;5078170;28;45250;-51
2023/09/17 02:11:23;;;;;;;7.45;4.65;;;23.00;99.90;;;;;;5076893;28;45292;-51
2023/09/17 02:13:50;;;;;;;8.48;4.57;;;23.00;99.90;;;;;;5076374;28;45375;-51
2023/09/17 02:16:17;;;;;;;7.78;4.90;;;23.00;99.90;;;;;;5079289;28;45500;-51
2023/09/17 02:18:45;;;;;;;7.57;4.80;;;23.00;99.90;;;;;;5082343;28;45236;-51
2023/09/17 02:21:11;;;;;;;6.80;4.45;;;23.00;99.90;;;;;;5074068;28;45183;-51
2023/09/17 02:23:38;;;;;;;6.53;4.82;;;23.00;99.90;;;;;;5074020;28;45140;-51
2023/09/17 02:26:05;;;;;;;8.88;4.65;;;23.00;99.90;;;;;;5073198;27;45214;-51
2023/09/17 02:28:32;;;;;;;6.80;4.43;;;23.00;99.90;;;;;;5078476;28;45152;-51
2023/09/17 02:31:00;;;;;;;6.20;4.43;;;23.00;99.90;;;;;;5078659;28;46238;-51
2023/09/17 02:33:26;;;;;;;6.60;4.22;;;23.00;99.90;;;;;;5075862;28;45180;-51
2023/09/17 02:35:55;;;;;;;6.43;4.20;;;23.00;99.90;;;;;;5064154;27;45190;-51
2023/09/17 02:38:22;;;;;;;9.00;3.80;;;23.00;99.90;;;;;;5078513;28;45195;-51
2023/09/17 02:40:49;;;;;;;6.30;4.25;;;23.00;99.90;;;;;;5083221;27;45452;-51
2023/09/17 02:43:16;;;;;;;5.07;3.90;;;23.00;99.90;;;;;;5073410;28;45270;-51
2023/09/17 02:45:43;;;;;;;6.38;4.00;;;23.00;99.90;;;;;;5081912;28;45226;-51
2023/09/17 02:48:12;;;;;;;5.28;3.60;;;23.10;99.90;;;;;;5075856;27;45406;-51
2023/09/17 02:50:39;;;;;;;4.68;3.75;;;23.10;99.90;;;;;;5081489;28;46541;-51
2023/09/17 02:53:08;;;;;;;5.50;3.97;;;23.10;99.90;;;;;;5079187;28;45122;-51
2023/09/17 02:55:35;;;;;;;3.83;3.40;;;23.10;99.90;;;;;;5075340;28;45185;-51
2023/09/17 02:58:02;;;;;;;5.68;3.63;;;23.10;99.90;;;;;;5078481;28;45176;-51
2023/09/17 03:00:31;;;;;;;6.15;3.80;;;23.00;99.90;;;;;;5073335;28;46521;-51
2023/09/17 03:02:58;;;;;;;4.68;3.88;;;23.10;99.90;;;;;;5077616;28;45645;-51
2023/09/17 03:05:25;;;;;;;4.75;3.60;;;23.00;99.90;;;;;;5071337;28;45331;-51
2023/09/17 03:07:53;;;;;;;5.30;3.88;;;23.00;99.90;;;;;;5063961;28;45245;-51
2023/09/17 03:10:22;;;;;;;8.63;3.65;;;23.00;99.90;;;;;;5069203;28;46345;-51
2023/09/17 03:12:49;;;;;;;5.03;3.72;;;23.00;99.90;;;;;;5075591;28;45321;-51
2023/09/17 03:15:16;;;;;;;5.13;4.03;;;23.00;99.90;;;;;;5072059;28;45311;-51
2023/09/17 03:17:43;;;;;;;5.15;3.83;;;23.00;99.90;;;;;;5081378;28;45443;-51
2023/09/17 03:20:17;;;;;;;5.82;3.47;;;23.00;99.90;;;;;;5081589;27;46357;-51
2023/09/17 03:22:44;;;;;;;6.03;3.63;;;23.00;99.90;;;;;;5076400;28;45351;-51
2023/09/17 03:25:13;;;;;;;5.55;4.18;;;23.00;99.90;;;;;;5077015;27;45088;-51
2023/09/17 03:27:43;;;;;;;5.38;3.75;;;23.00;99.90;;;;;;5077461;28;45457;-51
2023/09/17 03:30:11;;;;;;;5.30;4.07;;;23.00;99.90;;;;;;5073112;27;48570;-51
2023/09/17 03:32:38;;;;;;;5.53;4.30;;;23.00;99.90;;;;;;5075434;28;45237;-51
2023/09/17 03:35:07;;;;;;;6.43;3.95;;;23.00;99.90;;;;;;5074140;28;45342;-51
2023/09/17 03:37:34;;;;;;;6.15;4.50;;;23.00;99.90;;;;;;5074382;28;45207;-51
2023/09/17 03:40:10;;;;;;;6.25;4.50;;;23.00;99.90;;;;;;5069957;27;46308;-51
2023/09/17 03:42:38;;;;;;;5.40;4.30;;;23.00;99.90;;;;;;5077706;28;45640;-51
2023/09/17 03:45:09;;;;;;;7.10;4.70;;;23.00;99.90;;;;;;5071679;28;44671;-51
2023/09/17 03:47:36;;;;;;;5.63;4.43;;;23.00;99.90;;;;;;5081035;28;45190;-51
2023/09/17 03:50:05;;;;;;;6.68;4.43;;;23.00;99.90;;;;;;5077047;27;46549;-51
2023/09/17 03:52:33;;;;;;;5.78;4.60;;;23.00;99.90;;;;;;5078206;27;44622;-51
2023/09/17 03:55:01;;;;;;;6.47;5.05;;;23.00;99.90;;;;;;5082524;28;44756;-51
2023/09/17 03:57:28;;;;;;;5.40;4.38;;;23.00;99.90;;;;;;5083202;28;45130;-51
2023/09/17 03:59:55;;;;;;;5.75;4.18;;;23.00;99.90;;;;;;5084670;27;46584;-51
2023/09/17 04:02:23;;;;;;;7.05;5.32;;;23.00;99.90;;;;;;5072029;27;45219;-51
2023/09/17 04:04:50;;;;;;;7.97;4.70;;;23.00;99.90;;;;;;5077498;28;45109;-51
2023/09/17 04:07:16;;;;;;;6.15;5.00;;;23.00;99.90;;;;;;5085881;28;45302;-51
2023/09/17 04:09:43;;;;;;;7.05;5.03;;;23.00;99.90;;;;;;5081243;28;47801;-51
2023/09/17 04:12:11;;;;;;;6.85;4.97;;;23.00;99.90;;;;;;5076562;28;45169;-51
2023/09/17 04:14:38;;;;;;;6.60;4.85;;;23.00;99.90;;;;;;5070856;28;45268;-51
2023/09/17 04:17:05;;;;;;;7.47;5.00;;;23.00;99.90;;;;;;5075735;27;44879;-51
2023/09/17 04:19:34;;;;;;;7.63;5.38;;;23.00;99.90;;;;;;5080593;28;45297;-51
2023/09/17 04:22:02;;;;;;;5.88;4.97;;;23.00;99.90;;;;;;5085790;28;45336;-52
2023/09/17 04:24:29;;;;;;;7.78;5.20;;;23.00;99.90;;;;;;5086337;28;45094;-51
2023/09/17 04:26:56;;;;;;;6.38;4.90;;;23.00;99.90;;;;;;5084631;27;45075;-51
2023/09/17 04:29:23;;;;;;;6.72;5.32;;;23.00;99.90;;;;;;5076310;28;47031;-51
2023/09/17 04:31:52;;;;;;;7.65;5.20;;;23.00;99.90;;;;;;5084828;28;45280;-51
2023/09/17 04:34:19;;;;;;;7.30;5.80;;;23.00;99.90;;;;;;5082830;28;45159;-51
2023/09/17 04:36:48;;;;;;;7.28;5.43;;;23.00;99.90;;;;;;5085399;28;45050;-51
2023/09/17 04:39:16;;;;;;;7.65;5.63;;;23.00;99.90;;;;;;5085333;28;45287;-51
2023/09/17 04:41:43;;;;;;;9.10;5.95;;;23.00;99.90;;;;;;5083336;28;45398;-51
2023/09/17 04:44:10;;;;;;;6.90;5.15;;;23.00;99.90;;;;;;5073657;28;45467;-51
2023/09/17 04:46:39;;;;;;;7.43;5.55;;;23.00;99.90;;;;;;5077448;28;45347;-51
2023/09/17 04:49:06;;;;;;;7.72;5.85;;;23.00;99.90;;;;;;5082151;27;48711;-51
2023/09/17 04:51:33;;;;;;;7.15;5.13;;;23.00;99.90;;;;;;5084187;28;45291;-51
2023/09/17 04:54:02;;;;;;;7.45;5.93;;;23.00;99.90;;;;;;5074431;27;45418;-51
2023/09/17 04:56:29;;;;;;;7.85;6.22;;;23.00;99.90;;;;;;5076536;28;45327;-51
2023/09/17 04:58:56;;;;;;;7.47;6.13;;;22.90;99.90;;;;;;5085648;28;46963;-51
2023/09/17 05:01:23;;;;;;;10.43;7.18;;;22.90;99.90;;;;;;5084582;28;45272;-51
2023/09/17 05:03:50;;;;;;;8.02;6.32;;;22.90;99.90;;;;;;5081297;27;45097;-51
2023/09/17 05:06:16;;;;;;;10.05;7.50;;;22.90;99.90;;;;;;5083557;28;45095;-50
2023/09/17 05:08:43;;;;;;;11.60;7.30;;;22.80;99.90;;;;;;5085501;28;46992;-50
2023/09/17 05:11:11;;;;;;;11.02;7.43;;;22.90;99.90;;;;;;5085611;28;45056;-50
2023/09/17 05:13:38;;;;;;;8.70;6.68;;;22.90;99.90;;;;;;5085709;28;45079;-50
2023/09/17 05:16:06;;;;;;;8.93;6.80;;;22.90;99.90;;;;;;5075027;28;45444;-50
2023/09/17 05:18:32;;;;;;;10.43;6.18;;;22.90;99.90;;;;;;5077539;27;46571;-50
2023/09/17 05:20:59;;;;;;;8.23;6.28;;;22.90;99.90;;;;;;5079659;28;45179;-50
2023/09/17 05:23:26;;;;;;;8.02;6.13;;;22.90;99.90;;;;;;5085266;27;45083;-50
2023/09/17 05:25:54;;;;;;;8.00;5.78;;;22.90;99.90;;;;;;5082624;28;45131;-51
2023/09/17 05:28:23;;;;;;;11.55;5.80;;;22.90;99.90;;;;;;5073245;28;45474;-51
2023/09/17 05:30:50;;;;;;;7.32;5.03;;;22.90;99.90;;;;;;5083398;27;44721;-51
2023/09/17 05:33:17;;;;;;;6.82;5.38;;;22.90;99.90;;;;;;5077735;28;45126;-51
2023/09/17 05:35:44;;;;;;;7.13;5.63;;;22.90;99.90;;;;;;5080053;27;44641;-50
2023/09/17 05:38:10;;;;;;;7.03;5.35;;;22.90;99.90;;;;;;5073034;28;45281;-50
2023/09/17 05:40:37;;;;;;;6.80;5.28;;;23.00;99.90;;;;;;5080170;28;45117;-50
2023/09/17 05:43:04;;;;;;;7.03;5.43;;;23.00;99.90;;;;;;5074551;28;45377;-50
2023/09/17 05:45:32;;;;;;;7.57;5.35;;;23.00;99.90;;;;;;5081763;27;45355;-50
2023/09/17 05:47:59;;;;;;;5.95;5.03;;;23.00;99.90;;;;;;5081014;27;44953;-51
2023/09/17 05:50:26;;;;;;;7.13;5.57;;;23.00;99.90;;;;;;5072401;28;45177;-51
2023/09/17 05:52:53;;;;;;;9.13;5.20;;;23.00;99.90;;;;;;5085658;28;45058;-51
2023/09/17 05:55:19;;;;;;;6.25;4.80;;;23.00;99.90;;;;;;5072202;28;45097;-51
2023/09/17 05:57:46;;;;;;;6.90;5.20;;;23.00;99.90;;;;;;5081677;27;46179;-51
2023/09/17 06:00:14;;;;;;;6.97;5.18;;;23.00;99.90;;;;;;5075768;27;45291;-50
2023/09/17 06:02:42;;;;;;;7.95;5.22;;;23.00;99.90;;;;;;5078412;28;45243;-50
2023/09/17 06:05:09;;;;;;;6.10;5.38;;;23.00;99.90;;;;;;5080627;28;45246;-51
2023/09/17 06:07:36;;;;;;;7.53;5.78;;;23.00;99.90;;;;;;5069587;28;48520;-50
2023/09/17 06:10:04;;;;;;;7.00;5.45;;;23.00;99.90;;;;;;5077012;28;45099;-51
2023/09/17 06:12:31;;;;;;;6.97;5.43;;;23.00;99.90;;;;;;5071964;28;44597;-50
2023/09/17 06:14:58;;;;;;;6.55;4.97;;;23.00;99.90;;;;;;5074763;27;45264;-49
2023/09/17 06:17:24;;;;;;;8.05;5.60;;;23.00;99.90;;;;;;5074458;28;45285;-50
2023/09/17 06:19:53;;;;;;;7.85;5.40;;;23.00;99.90;;;;;;5070433;28;45173;-50
2023/09/17 06:22:19;;;;;;;7.00;5.47;;;23.00;99.90;;;;;;5066336;28;45279;-51
2023/09/17 06:24:46;;;;;;;7.00;5.20;;;23.00;99.90;;;;;;5076520;28;45209;-51
2023/09/17 06:27:13;;;;;;;5.97;4.60;;;23.00;99.90;;;;;;5075557;28;46991;-51
2023/09/17 06:29:40;;;;;;;7.25;5.18;;;23.00;99.90;;;;;;5080202;28;45196;-51
2023/09/17 06:32:06;;;;;;;7.55;5.15;;;23.00;99.90;;;;;;5073952;28;45164;-51
2023/09/17 06:34:34;;;;;;;5.70;4.78;;;23.00;99.90;;;;;;5075576;28;45347;-50
2023/09/17 06:37:03;;;;;;;6.05;4.75;;;23.00;99.90;;;;;;5081052;27;45260;-50
2023/09/17 06:39:30;;;;;;;7.88;4.35;;;23.00;99.90;;;;;;5081252;28;45121;-50
2023/09/17 06:41:56;;;;;;;6.40;4.47;;;23.00;99.90;;;;;;5073179;28;45221;-51
2023/09/17 06:44:24;;;;;;;5.88;4.20;;;23.00;99.90;;;;;;5084337;28;45239;-51
2023/09/17 06:46:51;;;;;;;7.68;4.95;;;23.00;99.90;;;;;;5069584;28;46331;-51
2023/09/17 06:49:18;;;;;;;6.00;4.75;;;23.00;99.90;;;;;;5071141;27;45087;-51
2023/09/17 06:51:45;;;;;;;5.45;4.47;;;23.00;99.90;;;;;;5067896;28;45067;-51
2023/09/17 06:54:13;;;;;;;7.20;4.50;;;23.00;99.90;;;;;;5071545;28;45136;-51
2023/09/17 06:56:40;;;;;;;6.32;4.50;;;23.00;99.90;;;;;;5069607;28;46248;-51
2023/09/17 06:59:06;;;;;;;5.15;3.92;;;23.00;99.90;;;;;;5073050;28;45170;-50
2023/09/17 07:01:34;;;;;;;6.43;4.47;;;23.00;99.90;;;;;;5069892;28;45130;-50
2023/09/17 07:04:00;;;;;;;6.65;4.53;;;23.00;99.90;;;;;;5072001;28;45109;-50
2023/09/17 07:06:27;;;;;;;8.35;4.15;;;23.00;99.90;;;;;;5081905;28;47263;-50
2023/09/17 07:08:55;;;;;;;6.18;4.18;;;23.00;99.90;;;;;;5083904;28;45277;-50
2023/09/17 07:11:23;;;;;;;6.93;4.20;;;23.00;99.90;;;;;;5081043;28;45109;-50
2023/09/17 07:13:50;;;;;;;7.30;4.13;;;23.00;99.90;;;;;;5079081;28;45208;-49
2023/09/17 07:16:18;;;;;;;6.65;4.90;;;23.10;99.90;;;;;;5079067;28;45438;-50
2023/09/17 07:18:45;;;;;;;5.38;4.15;;;23.00;99.90;;;;;;5073281;28;45126;-51
2023/09/17 07:21:11;;;;;;;6.28;4.30;;;23.00;99.90;;;;;;5074842;27;45199;-50
2023/09/17 07:23:38;;;;;;;5.38;4.30;;;23.00;99.90;;;;;;5063501;28;45259;-50
2023/09/17 07:26:06;;;;;;;5.32;4.18;;;23.00;99.90;;;;;;5070949;28;47337;-50
2023/09/17 07:28:34;;;;;;;6.72;4.32;;;22.90;99.90;;;;;;5077266;28;45267;-50
2023/09/17 07:31:01;;;;;;;6.07;3.97;;;22.90;99.90;;;;;;5079549;28;44667;-50
2023/09/17 07:33:28;;;;;;;7.07;4.57;;;22.90;99.90;;;;;;5080670;27;45275;-50
2023/09/17 07:35:55;;;;;;;5.22;3.80;;;22.90;99.90;;;;;;5083031;28;45053;-50
2023/09/17 07:38:21;;;;;;;4.68;3.42;;;22.90;99.90;;;;;;5074202;28;45203;-50
2023/09/17 07:40:48;;;;;;;4.25;3.42;;;23.00;99.90;;;;;;5081793;28;45213;-50
2023/09/17 07:43:15;;;;;;;5.10;3.67;;;23.00;99.90;;;;;;5080119;28;45284;-50
2023/09/17 07:45:43;;;;;;;4.05;3.60;;;23.00;99.90;;;;;;5076544;28;45376;-51
2023/09/17 07:48:10;;;;;;;4.18;3.10;;;23.00;99.90;;;;;;5079146;28;44544;-51
2023/09/17 07:50:37;;;;;;;4.97;3.30;;;23.00;99.90;;;;;;5074371;28;45218;-51
2023/09/17 07:53:04;;;;;;;4.35;2.97;;;23.00;99.90;;;;;;5082212;27;45152;-51
2023/09/17 07:55:30;;;;;;;4.82;3.20;;;23.00;99.90;;;;;;5072925;28;46035;-51
2023/09/17 07:57:57;;;;;;;4.05;2.60;;;23.00;99.90;;;;;;5078059;28;45150;-51
2023/09/17 08:00:24;;;;;;;5.50;3.10;;;23.00;99.90;;;;;;5074969;27;45152;-51
2023/09/17 08:02:53;;;;;;;3.72;2.80;;;23.00;99.90;;;;;;5081403;28;45067;-51
2023/09/17 08:05:19;;;;;;;3.08;2.70;;;23.00;99.90;;;;;;5080846;28;47957;-51
2023/09/17 08:07:46;;;;;;;3.42;2.25;;;23.00;99.90;;;;;;5071550;28;45099;-51
2023/09/17 08:10:13;;;;;;;4.18;2.65;;;23.00;99.90;;;;;;5075480;27;45177;-51
2023/09/17 08:12:40;;;;;;;4.10;2.88;;;23.00;99.90;;;;;;5076731;28;45274;-51
2023/09/17 08:15:07;;;;;;;3.17;2.20;;;23.00;99.90;;;;;;5079259;28;45288;-50
2023/09/17 08:17:34;;;;;;;2.40;2.03;;;23.00;99.90;;;;;;5071981;28;45170;-49
2023/09/17 08:20:04;;;;;;;3.38;2.30;;;23.10;99.90;;;;;;5071796;28;45129;-50
2023/09/17 08:22:32;;;;;;;3.25;2.40;;;23.10;99.90;;;;;;5070612;28;45226;-50
2023/09/17 08:24:59;;;;;;;2.58;2.35;;;23.10;99.90;;;;;;5072348;28;47281;-50
2023/09/17 08:27:26;;;;;;;2.75;2.42;;;23.10;99.90;;;;;;5072121;27;45079;-51
2023/09/17 08:29:53;;;;;;;2.58;2.33;;;23.10;99.90;;;;;;5070963;28;45185;-51
2023/09/17 08:32:19;;;;;;;2.60;2.40;;;23.10;99.90;;;;;;5079689;28;44743;-51
2023/09/17 08:34:46;;;;;;;5.72;2.63;;;23.10;99.90;;;;;;5066807;28;45140;-51
2023/09/17 08:37:17;;;;;;;2.92;2.38;;;23.10;99.90;;;;;;5072735;27;45201;-51
2023/09/17 08:39:44;;;;;;;3.03;2.55;;;23.10;99.90;;;;;;5084978;28;45268;-51
2023/09/17 08:42:11;;;;;;;3.25;2.40;;;23.10;99.90;;;;;;5085678;28;44694;-51
2023/09/17 08:44:39;;;;;;;3.63;2.50;;;23.10;99.90;;;;;;5069923;28;45173;-51
2023/09/17 08:47:06;;;;;;;2.78;2.45;;;23.10;99.90;;;;;;5082922;28;45071;-51
2023/09/17 08:49:33;;;;;;;2.80;2.33;;;23.10;99.90;;;;;;5069390;28;45190;-51
2023/09/17 08:52:04;;;;;;;2.83;2.40;;;23.10;99.90;;;;;;5086651;28;45095;-51
2023/09/17 08:54:39;;;;;;;2.45;2.13;;;23.10;99.90;;;;;;5067833;28;46333;-51
2023/09/17 08:57:08;;;;;;;2.78;2.50;;;23.10;99.90;;;;;;5077811;28;45257;-51
2023/09/17 08:59:38;;;;;;;3.00;2.20;;;23.10;99.90;;;;;;5072942;28;44591;-51
2023/09/17 09:02:10;;;;;;;3.08;2.10;;;23.10;99.90;;;;;;5072097;28;45148;-51
2023/09/17 09:04:38;;;;;;;3.30;2.20;;;23.10;99.90;;;;;;5082117;27;45177;-51
2023/09/17 09:07:06;;;;;;;2.35;2.05;;;23.10;99.90;;;;;;5064783;28;45142;-51
2023/09/17 09:09:36;;;;;;;2.67;2.10;;;23.10;99.90;;;;;;5074715;28;45197;-51
2023/09/17 09:12:03;;;;;;;3.55;2.30;;;23.10;99.90;;;;;;5079106;28;45082;-51
2023/09/17 09:14:30;;;;;;;2.40;1.95;;;23.10;99.90;;;;;;5074010;28;45389;-51
2023/09/17 09:16:57;;;;;;;2.55;2.35;;;23.10;99.90;;;;;;5073791;28;45135;-51
2023/09/17 09:19:24;;;;;;;2.22;2.03;;;23.10;99.90;;;;;;5076576;28;45090;-51
2023/09/17 09:21:51;;;;;;;2.70;2.28;;;23.10;99.90;;;;;;5076984;28;45570;-51
2023/09/17 09:24:18;;;;;;;2.17;1.95;;;23.10;99.90;;;;;;5073430;28;45161;-51
2023/09/17 09:26:46;;;;;;;2.33;2.05;;;23.10;99.90;;;;;;5078716;28;45214;-51
2023/09/17 09:29:13;;;;;;;3.28;2.30;;;23.10;99.90;;;;;;5082204;28;45315;-51
2023/09/17 09:31:40;;;;;;;1.92;1.73;;;23.10;99.90;;;;;;5086333;28;44736;-51
2023/09/17 09:34:07;;;;;;;2.67;1.73;;;23.10;99.90;;;;;;5083989;28;46134;-51
2023/09/17 09:36:35;;;;;;;2.22;2.03;;;23.10;99.90;;;;;;5073115;28;45150;-51
2023/09/17 09:39:03;;;;;;;2.80;1.90;;;23.10;99.90;;;;;;5065704;28;45121;-51
2023/09/17 09:41:32;;;;;;;2.40;2.20;;;23.10;99.90;;;;;;5068598;28;45067;-51
2023/09/17 09:44:00;;;;;;;2.60;1.80;;;23.10;99.90;;;;;;5077011;28;45150;-51
2023/09/17 09:46:28;;;;;;;2.47;2.05;;;23.10;99.90;;;;;;5079756;27;45225;-51
2023/09/17 09:49:00;;;;;;;2.63;2.20;;;23.10;99.90;;;;;;5080857;27;45123;-51
2023/09/17 09:51:29;;;;;;;2.22;1.77;;;23.10;99.90;;;;;;5074642;27;45134;-51
2023/09/17 09:53:56;;;;;;;3.40;1.90;;;23.10;99.90;;;;;;5077310;28;45412;-51
2023/09/17 09:56:27;;;;;;;3.80;2.13;;;23.10;99.90;;;;;;5076006;28;45181;-51
2023/09/17 09:58:55;;;;;;;2.15;1.95;;;23.10;99.90;;;;;;5070953;28;45059;-51
2023/09/17 10:01:23;;;;;;;2.90;2.38;;;23.10;99.90;;;;;;5073246;28;45366;-51
2023/09/17 10:03:50;;;;;;;2.80;2.15;;;23.10;99.90;;;;;;5074261;28;46205;-51
2023/09/17 10:06:17;;;;;;;3.30;2.25;;;23.10;99.90;;;;;;5072072;28;45149;-51
2023/09/17 10:08:45;;;;;;;2.25;1.80;;;23.10;99.90;;;;;;5080545;27;45258;-51
2023/09/17 10:11:12;;;;;;;2.72;2.00;;;23.10;99.90;;;;;;5077758;28;45212;-51
2023/09/17 10:13:40;;;;;;;2.22;1.88;;;23.10;99.90;;;;;;5069059;28;45193;-51
2023/09/17 10:16:07;;;;;;;2.25;1.95;;;23.10;99.90;;;;;;5084651;28;45183;-51
2023/09/17 10:18:39;;;;;;;2.38;1.80;;;23.10;99.90;;;;;;5077408;28;44996;-51
2023/09/17 10:21:06;;;;;;;2.00;1.80;;;23.10;99.90;;;;;;5083295;28;45131;-51
2023/09/17 10:23:35;;;;;;;2.20;1.98;;;23.10;99.90;;;;;;5074112;28;45235;-51
2023/09/17 10:26:04;;;;;;;2.50;2.00;;;23.10;99.90;;;;;;5084410;28;45139;-51
2023/09/17 10:28:32;;;;;;;2.22;1.85;;;23.10;99.90;;;;;;5079153;28;45106;-51
2023/09/17 10:31:01;;;;;;;1.90;1.70;;;23.10;99.90;;;;;;5079538;28;45086;-51
2023/09/17 10:33:31;;;;;;;2.90;2.10;;;23.10;99.90;;;;;;5076781;28;45171;-51
2023/09/17 10:36:01;;;;;;;2.05;1.80;;;23.10;99.90;;;;;;5078168;28;45271;-51
2023/09/17 10:38:30;;;;;;;2.40;2.00;;;23.20;99.90;;;;;;5082645;27;45173;-51
2023/09/17 10:40:58;;;;;;;2.42;2.17;;;23.10;99.90;;;;;;5075151;28;45132;-51
2023/09/17 10:43:25;;;;;;;2.08;1.85;;;23.20;99.90;;;;;;5070148;27;46239;-51
2023/09/17 10:45:55;;;;;;;2.00;1.80;;;23.20;99.90;;;;;;5068206;28;45871;-51
2023/09/17 10:48:25;;;;;;;2.47;1.92;;;23.20;99.90;;;;;;5074977;28;45173;-51
2023/09/17 10:50:53;;;;;;;1.83;1.70;;;23.10;99.90;;;;;;5076924;27;45226;-51
2023/09/17 10:53:21;;;;;;;2.20;1.70;;;23.10;99.90;;;;;;5074039;28;47480;-51
2023/09/17 10:56:03;;;;;;;1.88;1.70;;;23.20;99.90;;;;;;5070305;28;46195;-51
2023/09/17 10:58:37;;;;;;;2.13;1.70;;;23.20;99.90;;;;;;5078795;28;45109;-51
2023/09/17 11:01:05;;;;;;;1.80;1.70;;;23.20;99.90;;;;;;5070913;28;45047;-51
2023/09/17 11:03:35;;;;;;;2.85;1.60;;;23.20;99.90;;;;;;5073302;28;45190;-51
2023/09/17 11:06:04;;;;;;;2.05;1.85;;;23.20;99.90;;;;;;5080590;28;45127;-51
2023/09/17 11:08:33;;;;;;;2.40;2.15;;;23.20;99.90;;;;;;5082263;28;45040;-51
2023/09/17 11:11:01;;;;;;;2.10;1.60;;;23.20;99.90;;;;;;5069075;28;45185;-51
2023/09/17 11:13:28;;;;;;;1.95;1.73;;;23.20;99.90;;;;;;5073135;28;47931;-51
2023/09/17 11:15:56;;;;;;;2.40;1.90;;;23.20;99.90;;;;;;5079564;28;45162;-51
2023/09/17 11:18:22;;;;;;;3.03;1.80;;;23.10;99.90;;;;;;5082120;28;45118;-51
2023/09/17 11:21:00;;;;;;;2.13;1.80;;;23.20;99.90;;;;;;5083296;28;45172;-51
2023/09/17 11:23:39;;;;;;;2.58;2.17;;;23.20;99.90;;;;;;5074401;28;45275;-51
2023/09/17 11:26:06;;;;;;;2.75;1.90;;;23.20;99.90;;;;;;5082146;27;45152;-51
2023/09/17 11:28:38;;;;;;;2.05;1.75;;;23.20;99.90;;;;;;5073702;28;44586;-51
2023/09/17 11:31:09;;;;;;;2.13;1.90;;;23.20;99.90;;;;;;5073249;28;45497;-51
2023/09/17 11:33:37;;;;;;;1.75;1.60;;;23.20;99.90;;;;;;5081395;28;47755;-51
2023/09/17 11:36:04;;;;;;;2.38;1.90;;;23.20;99.90;;;;;;5068264;27;45319;-51
2023/09/17 11:38:31;;;;;;;1.70;1.50;;;23.20;99.90;;;;;;5071150;27;45179;-51
2023/09/17 11:41:07;;;;;;;3.60;1.48;;;23.20;99.90;;;;;;5076134;28;44671;-51
2023/09/17 11:43:35;;;;;;;2.13;1.50;;;23.20;99.90;;;;;;5072061;28;45172;-51
2023/09/17 11:46:05;;;;;;;2.15;1.90;;;23.20;99.90;;;;;;5069571;28;45045;-51
2023/09/17 11:48:33;;;;;;;2.10;1.83;;;23.20;99.90;;;;;;5075678;28;44612;-51
2023/09/17 11:51:19;;;;;;;2.13;1.75;;;23.20;99.90;;;;;;5071798;28;45293;-51
2023/09/17 11:53:51;;;;;;;2.28;1.95;;;23.20;99.90;;;;;;5075664;28;45202;-51
2023/09/17 11:56:19;;;;;;;1.80;1.70;;;23.20;99.90;;;;;;5073601;28;45243;-51
2023/09/17 11:58:46;;;;;;;2.53;1.60;;;23.20;99.90;;;;;;5074263;28;45195;-51
2023/09/17 12:01:14;;;;;;;2.92;1.80;;;23.20;99.90;;;;;;5072812;28;45028;-51
2023/09/17 12:03:41;;;;;;;1.77;1.60;;;23.20;99.90;;;;;;5077424;28;45190;-51
2023/09/17 12:06:08;;;;;;;2.05;1.85;;;23.20;99.90;;;;;;5069047;28;45075;-51
2023/09/17 12:08:35;;;;;;;2.00;1.75;;;23.20;99.90;;;;;;5073371;27;45050;-51
2023/09/17 12:11:07;;;;;;;1.77;1.60;;;23.20;99.90;;;;;;5072186;28;45222;-51
2023/09/17 12:13:35;;;;;;;1.73;1.63;;;23.20;99.90;;;;;;5079586;27;47617;-51
2023/09/17 12:16:02;;;;;;;1.75;1.52;;;23.20;99.90;;;;;;5071540;28;45163;-51
2023/09/17 12:18:29;;;;;;;1.77;1.50;;;23.20;99.90;;;;;;5077265;28;45349;-51
2023/09/17 12:20:59;;;;;;;1.70;1.60;;;23.20;99.90;;;;;;5085929;27;45132;-51
2023/09/17 12:23:37;;;;;;;2.25;1.77;;;23.20;99.90;;;;;;5075280;28;47456;-51
2023/09/17 12:26:04;;;;;;;1.83;1.73;;;23.20;99.90;;;;;;5080410;28;45122;-51
2023/09/17 12:28:31;;;;;;;2.53;1.70;;;23.20;99.90;;;;;;5072113;28;44596;-51
2023/09/17 12:31:00;;;;;;;1.95;1.73;;;23.20;99.90;;;;;;5072263;28;45087;-51
2023/09/17 12:33:26;;;;;;;1.92;1.50;;;23.20;99.90;;;;;;5077028;28;45265;-51
2023/09/17 12:35:56;;;;;;;1.67;1.58;;;23.20;99.90;;;;;;5077747;28;45154;-51
2023/09/17 12:38:22;;;;;;;1.92;1.70;;;23.20;99.90;;;;;;5085104;28;44689;-51
2023/09/17 12:40:49;;;;;;;2.28;1.60;;;23.20;99.90;;;;;;5078657;28;44647;-51
2023/09/17 12:43:16;;;;;;;1.60;1.50;;;23.20;99.90;;;;;;5076123;28;45171;-51
2023/09/17 12:45:43;;;;;;;1.75;1.65;;;23.20;99.90;;;;;;5073767;28;45132;-51
2023/09/17 12:48:11;;;;;;;1.92;1.75;;;23.20;99.90;;;;;;5077543;28;45225;-51